Time;durP1;ratioP1;P1;durP2;ratioP2;P2;SDS_P1;SDS_P2;PMS_P1;PMS_P2;Temp;Humidity;BMP_temperature;BMP_pressure;BME280_temperature;BME280_humidity;BME280_pressure;Samples;Min_cycle;Max_cycle;Signal;HPM_P1;HPM_P2
2022/05/21 00:01:47;;;;;;;2.70;2.50;;;9.50;99.90;;;;;;6126951;29;20208;-68
2022/05/21 00:04:52;;;;;;;2.85;2.67;;;9.50;99.90;;;;;;6125666;29;20240;-68
2022/05/21 00:07:59;;;;;;;2.40;2.30;;;9.50;99.90;;;;;;6126154;29;20687;-66
2022/05/21 00:11:04;;;;;;;2.50;2.50;;;9.40;99.90;;;;;;6126140;29;20214;-70
2022/05/21 00:14:10;;;;;;;3.00;2.13;;;9.40;99.90;;;;;;6126108;29;20262;-68
2022/05/21 00:17:16;;;;;;;4.63;2.60;;;9.40;99.90;;;;;;6126052;29;20215;-67
2022/05/21 00:23:46;;;;;;;2.70;1.90;;;9.50;99.90;;;;;;6125939;29;20236;-68
2022/05/21 00:26:51;;;;;;;2.50;2.47;;;9.40;99.90;;;;;;6125902;29;20587;-67
2022/05/21 00:29:57;;;;;;;4.63;2.40;;;9.40;99.90;;;;;;6126170;29;20242;-67
2022/05/21 00:33:02;;;;;;;2.60;2.40;;;9.40;99.90;;;;;;6125925;29;20257;-68
2022/05/21 00:36:08;;;;;;;3.83;2.50;;;9.30;99.90;;;;;;6126514;29;20250;-67
2022/05/21 00:39:15;;;;;;;4.10;2.22;;;9.40;99.90;;;;;;6126022;29;20248;-68
2022/05/21 00:42:20;;;;;;;2.30;2.20;;;9.40;99.90;;;;;;6125490;29;20663;-68
2022/05/21 00:45:26;;;;;;;3.03;2.28;;;9.40;99.90;;;;;;6126884;29;20208;-68
2022/05/21 00:48:32;;;;;;;2.20;2.20;;;9.30;99.90;;;;;;6128838;29;20682;-69
2022/05/21 00:51:41;;;;;;;2.90;2.38;;;9.40;99.90;;;;;;6131146;29;20223;-68
2022/05/21 00:54:52;;;;;;;3.03;1.92;;;9.40;99.90;;;;;;6130374;29;20239;-68
2022/05/21 01:05:28;;;;;;;1.80;1.80;;;9.30;99.90;;;;;;6376833;23;20238;-69
2022/05/21 01:08:33;;;;;;;2.40;2.20;;;9.30;99.90;;;;;;6059789;29;20264;-68
2022/05/21 01:11:40;;;;;;;2.28;2.20;;;9.20;99.90;;;;;;6061023;29;20210;-67
2022/05/21 01:14:48;;;;;;;2.28;2.15;;;9.20;99.90;;;;;;6060551;29;20696;-68
2022/05/21 01:17:55;;;;;;;2.72;2.53;;;9.20;99.90;;;;;;6059408;29;20246;-69
2022/05/21 01:21:02;;;;;;;2.30;2.20;;;9.30;99.90;;;;;;6058933;29;20664;-67
2022/05/21 01:24:10;;;;;;;2.30;2.13;;;9.30;99.90;;;;;;6059574;29;20241;-67
2022/05/21 01:27:16;;;;;;;2.45;2.35;;;9.30;99.90;;;;;;6059291;29;20593;-67
2022/05/21 01:30:25;;;;;;;2.10;1.92;;;9.30;99.90;;;;;;6059675;29;20218;-67
2022/05/21 01:33:33;;;;;;;2.85;2.35;;;9.20;99.90;;;;;;6059809;29;20268;-67
2022/05/21 01:36:38;;;;;;;2.10;2.00;;;9.20;99.90;;;;;;6059710;29;20524;-67
2022/05/21 01:39:47;;;;;;;2.60;2.40;;;9.20;99.90;;;;;;6059280;29;20240;-68
2022/05/21 01:46:12;;;;;;;2.42;2.42;;;9.30;99.90;;;;;;6059524;29;20210;-67
2022/05/21 01:49:18;;;;;;;2.17;2.10;;;9.20;99.90;;;;;;6059271;29;20601;-68
2022/05/21 01:52:23;;;;;;;2.45;2.22;;;9.20;99.90;;;;;;6059703;29;20210;-68
2022/05/21 01:55:30;;;;;;;2.20;2.17;;;9.20;99.90;;;;;;6074718;29;20218;-67
2022/05/21 01:58:36;;;;;;;2.30;2.20;;;9.20;99.90;;;;;;6060427;29;20265;-67
2022/05/21 02:01:41;;;;;;;5.18;2.45;;;9.30;99.90;;;;;;6079329;29;20270;-67
2022/05/21 02:04:47;;;;;;;2.60;2.40;;;9.30;99.90;;;;;;6085628;29;20294;-67
2022/05/21 02:07:52;;;;;;;2.60;2.50;;;9.30;99.90;;;;;;6084317;29;20310;-67
2022/05/21 02:10:59;;;;;;;3.70;2.20;;;9.30;99.90;;;;;;6058920;29;20210;-67
2022/05/21 02:14:04;;;;;;;2.13;1.92;;;9.20;99.90;;;;;;6058970;29;20234;-67
2022/05/21 02:17:11;;;;;;;3.60;2.35;;;9.20;99.90;;;;;;6058324;29;20217;-68
2022/05/21 02:20:17;;;;;;;2.40;2.38;;;9.20;99.90;;;;;;6058450;29;20222;-67
2022/05/21 02:23:23;;;;;;;2.45;2.28;;;9.20;99.90;;;;;;6058645;29;20253;-68
2022/05/21 02:26:29;;;;;;;2.25;2.03;;;9.20;99.90;;;;;;6074820;29;20237;-67
2022/05/21 02:29:35;;;;;;;2.58;2.25;;;9.20;99.90;;;;;;6057942;29;20254;-67
2022/05/21 02:32:40;;;;;;;2.25;2.25;;;9.20;99.90;;;;;;6057877;29;20731;-68
2022/05/21 02:35:46;;;;;;;2.30;2.20;;;9.20;99.90;;;;;;6057728;29;20665;-67
2022/05/21 02:45:34;;;;;;;2.35;2.25;;;9.20;99.90;;;;;;6058303;29;20222;-68
2022/05/21 02:48:40;;;;;;;3.50;2.30;;;9.20;99.90;;;;;;6058196;29;20254;-68
2022/05/21 02:51:46;;;;;;;2.33;2.20;;;9.20;99.90;;;;;;6058223;29;20579;-69
2022/05/21 02:54:51;;;;;;;2.30;2.20;;;9.20;99.90;;;;;;6058333;29;20242;-68
2022/05/21 02:57:58;;;;;;;2.83;2.28;;;9.20;99.90;;;;;;6057904;29;20260;-70
2022/05/21 03:01:04;;;;;;;3.03;2.13;;;9.30;99.90;;;;;;6057832;29;20660;-68
2022/05/21 03:04:10;;;;;;;2.05;1.95;;;9.30;99.90;;;;;;6055582;29;20633;-68
2022/05/21 03:07:15;;;;;;;2.15;2.10;;;9.20;99.90;;;;;;6071574;29;20240;-68
2022/05/21 03:10:23;;;;;;;2.65;2.55;;;9.30;99.90;;;;;;6057509;29;20218;-68
2022/05/21 03:13:30;;;;;;;2.10;2.10;;;9.30;99.90;;;;;;6057562;29;20230;-68
2022/05/21 03:16:43;;;;;;;2.33;2.10;;;9.30;99.90;;;;;;6057859;29;20218;-67
2022/05/21 03:19:49;;;;;;;2.38;2.28;;;9.40;99.90;;;;;;6057636;29;20238;-68
2022/05/21 03:22:54;;;;;;;2.50;2.30;;;9.40;99.90;;;;;;6057568;29;20246;-68
2022/05/21 03:26:00;;;;;;;2.80;2.40;;;9.40;99.90;;;;;;6057572;29;20216;-68
2022/05/21 03:29:08;;;;;;;2.22;2.13;;;9.40;99.90;;;;;;6057784;29;20276;-67
2022/05/21 03:32:13;;;;;;;2.30;2.10;;;9.50;99.90;;;;;;6056920;29;20695;-68
2022/05/21 03:35:20;;;;;;;4.72;2.20;;;9.50;99.90;;;;;;6057657;29;20214;-68
2022/05/21 03:38:25;;;;;;;4.13;2.00;;;9.50;99.90;;;;;;6057204;29;20240;-68
2022/05/21 03:41:31;;;;;;;2.30;2.30;;;9.50;99.90;;;;;;6057255;29;20236;-67
2022/05/21 03:44:38;;;;;;;2.25;2.25;;;9.60;99.90;;;;;;6071187;29;20238;-69
2022/05/21 03:47:44;;;;;;;2.10;2.00;;;9.70;99.90;;;;;;6056453;29;20701;-69
2022/05/21 03:50:49;;;;;;;2.20;2.20;;;9.70;99.90;;;;;;6057388;29;20234;-67
2022/05/21 03:53:55;;;;;;;2.38;2.17;;;9.80;99.90;;;;;;6056906;29;20236;-68
2022/05/21 03:57:00;;;;;;;1.95;1.95;;;9.80;99.90;;;;;;6057068;29;20216;-69
2022/05/21 04:00:11;;;;;;;2.13;2.13;;;9.90;99.90;;;;;;6056891;29;20220;-67
2022/05/21 04:03:20;;;;;;;2.20;2.10;;;10.00;99.90;;;;;;6056598;29;20700;-69
2022/05/21 04:06:25;;;;;;;2.72;2.00;;;10.00;99.90;;;;;;6056849;29;20220;-68
2022/05/21 04:09:30;;;;;;;1.92;1.92;;;10.10;99.90;;;;;;6056288;29;20250;-67
2022/05/21 04:12:37;;;;;;;2.20;1.98;;;10.10;99.90;;;;;;6056870;29;20240;-68
2022/05/21 04:15:44;;;;;;;1.95;1.92;;;10.10;99.90;;;;;;6071683;29;20214;-68
2022/05/21 04:18:49;;;;;;;2.00;1.90;;;10.20;99.90;;;;;;6056787;29;20237;-67
2022/05/21 04:21:55;;;;;;;1.88;1.88;;;10.20;99.90;;;;;;6058812;29;20218;-68
2022/05/21 04:25:02;;;;;;;1.83;1.83;;;10.20;99.90;;;;;;6064732;29;20213;-67
2022/05/21 04:28:08;;;;;;;2.17;2.00;;;10.20;99.90;;;;;;6078945;29;20607;-68
2022/05/21 04:31:14;;;;;;;2.28;2.08;;;10.30;99.90;;;;;;6064564;29;20226;-68
2022/05/21 04:34:20;;;;;;;1.85;1.85;;;10.40;99.90;;;;;;6064217;29;20697;-68
2022/05/21 04:37:25;;;;;;;2.15;2.05;;;10.40;99.90;;;;;;6078934;29;20236;-67
2022/05/21 04:40:31;;;;;;;2.33;2.22;;;10.40;99.90;;;;;;6065944;29;20552;-68
2022/05/21 04:43:37;;;;;;;2.28;2.08;;;10.50;99.90;;;;;;6064430;29;20234;-67
2022/05/21 04:46:44;;;;;;;1.90;1.80;;;10.60;99.90;;;;;;6079544;29;20606;-68
2022/05/21 04:49:49;;;;;;;2.35;1.70;;;10.60;99.90;;;;;;6064369;29;20571;-69
2022/05/21 04:52:55;;;;;;;4.43;1.92;;;10.70;99.90;;;;;;6064391;29;20237;-69
2022/05/21 04:56:00;;;;;;;1.85;1.85;;;10.70;99.90;;;;;;6064272;29;20220;-68
2022/05/21 04:59:26;;;;;;;2.35;2.22;;;10.70;99.90;;;;;;6078291;29;20248;-67
2022/05/21 05:02:34;;;;;;;2.88;2.20;;;10.70;99.90;;;;;;6063874;29;20238;-68
2022/05/21 05:05:42;;;;;;;2.47;2.20;;;10.90;99.90;;;;;;6064698;29;20244;-68
2022/05/21 05:08:48;;;;;;;2.78;2.08;;;10.90;99.90;;;;;;6064018;29;20244;-69
2022/05/21 05:11:54;;;;;;;2.20;1.98;;;10.90;99.90;;;;;;6064505;29;20226;-70
2022/05/21 05:15:00;;;;;;;2.10;2.00;;;11.00;99.90;;;;;;6064222;29;20220;-67
2022/05/21 05:18:12;;;;;;;1.85;1.85;;;10.90;99.90;;;;;;6064260;29;20241;-67
2022/05/21 05:21:17;;;;;;;2.10;1.98;;;11.00;99.90;;;;;;6064234;29;20575;-69
2022/05/21 05:24:22;;;;;;;2.05;1.80;;;11.00;99.90;;;;;;6063037;29;20603;-68
2022/05/21 05:27:28;;;;;;;2.60;2.40;;;11.00;99.90;;;;;;6063721;29;20241;-67
2022/05/21 05:30:33;;;;;;;4.68;2.35;;;11.00;99.90;;;;;;6064025;29;20237;-67
2022/05/21 05:33:42;;;;;;;5.78;2.25;;;11.10;99.90;;;;;;6061637;29;20255;-68
2022/05/21 05:36:48;;;;;;;2.15;2.10;;;11.20;99.90;;;;;;6060697;29;20653;-68
2022/05/21 05:39:56;;;;;;;2.85;2.65;;;11.30;99.90;;;;;;6060296;29;20210;-68
2022/05/21 05:43:03;;;;;;;2.30;2.20;;;11.30;99.90;;;;;;6061014;29;20269;-68
2022/05/21 05:46:09;;;;;;;2.17;2.17;;;11.40;99.90;;;;;;6060507;29;20232;-68
2022/05/21 05:49:16;;;;;;;2.30;2.15;;;11.40;99.90;;;;;;6059936;29;20238;-69
2022/05/21 05:52:22;;;;;;;3.53;2.40;;;11.30;99.90;;;;;;6074424;29;20252;-67
2022/05/21 05:55:27;;;;;;;3.22;2.25;;;11.40;99.90;;;;;;6059933;29;20209;-69
2022/05/21 06:05:18;;;;;;;2.05;2.03;;;11.30;99.90;;;;;;6059998;29;20248;-67
2022/05/21 06:08:24;;;;;;;2.08;2.05;;;11.40;99.90;;;;;;6060248;29;20238;-68
2022/05/21 06:11:33;;;;;;;2.10;2.10;;;11.40;99.90;;;;;;6059734;29;20248;-68
2022/05/21 06:14:38;;;;;;;2.50;2.30;;;11.40;99.90;;;;;;6059345;29;20230;-69
2022/05/21 06:17:44;;;;;;;2.33;2.25;;;11.40;99.90;;;;;;6059140;29;20234;-69
2022/05/21 06:21:09;;;;;;;3.33;2.13;;;11.40;99.90;;;;;;6059665;29;20214;-67
2022/05/21 06:24:15;;;;;;;2.47;2.38;;;11.40;99.90;;;;;;6059121;29;20546;-68
2022/05/21 06:27:20;;;;;;;2.17;2.15;;;11.50;99.90;;;;;;6058430;29;20248;-68
2022/05/21 06:30:27;;;;;;;2.25;2.15;;;11.50;99.90;;;;;;6059969;29;20282;-69
2022/05/21 06:33:33;;;;;;;2.20;2.10;;;11.50;99.90;;;;;;6058506;29;20249;-68
2022/05/21 06:36:40;;;;;;;2.67;1.95;;;11.50;99.90;;;;;;6058417;29;20206;-68
2022/05/21 06:39:47;;;;;;;2.40;2.30;;;11.50;99.90;;;;;;6058344;29;20656;-69
2022/05/21 06:42:52;;;;;;;2.50;2.15;;;11.50;99.90;;;;;;6058362;29;20246;-69
2022/05/21 06:45:58;;;;;;;1.92;1.92;;;11.40;99.90;;;;;;6058568;29;20210;-69
2022/05/21 06:49:03;;;;;;;2.28;2.20;;;11.40;99.90;;;;;;6058463;29;20242;-67
2022/05/21 06:52:12;;;;;;;2.20;2.10;;;11.40;99.90;;;;;;6057644;29;20256;-69
2022/05/21 06:55:19;;;;;;;2.30;2.20;;;11.40;99.90;;;;;;6058687;29;20230;-68
2022/05/21 06:58:24;;;;;;;2.03;1.92;;;11.40;99.90;;;;;;6058227;29;20237;-68
2022/05/21 07:01:30;;;;;;;2.67;2.33;;;11.40;99.90;;;;;;6058699;29;20210;-68
2022/05/21 07:08:00;;;;;;;2.13;2.13;;;11.40;99.90;;;;;;6066748;29;20242;-67
2022/05/21 07:11:06;;;;;;;2.80;2.50;;;11.50;99.90;;;;;;6073895;29;20206;-67
2022/05/21 07:14:12;;;;;;;3.80;2.35;;;11.40;99.90;;;;;;6074680;29;20234;-65
2022/05/21 07:17:18;;;;;;;2.20;2.10;;;11.40;99.90;;;;;;6073341;29;20255;-68
2022/05/21 07:20:24;;;;;;;2.40;2.15;;;11.40;99.90;;;;;;6057493;29;20210;-68
2022/05/21 07:23:31;;;;;;;2.40;2.30;;;11.40;99.90;;;;;;6056666;29;20554;-69
2022/05/21 07:26:36;;;;;;;2.47;2.38;;;11.40;99.90;;;;;;6057601;29;20209;-68
2022/05/21 07:29:42;;;;;;;2.70;2.30;;;11.50;99.90;;;;;;6056643;29;20240;-67
2022/05/21 07:32:50;;;;;;;2.25;2.13;;;11.50;99.90;;;;;;6056420;29;20261;-67
2022/05/21 07:35:56;;;;;;;3.03;2.35;;;11.50;99.90;;;;;;6057117;29;20265;-68
2022/05/21 07:39:02;;;;;;;2.95;2.70;;;11.50;99.90;;;;;;6056838;29;20267;-67
2022/05/21 07:42:09;;;;;;;2.05;2.05;;;11.50;99.90;;;;;;6056507;29;20218;-68
2022/05/21 07:45:18;;;;;;;2.33;2.33;;;11.40;99.90;;;;;;6057036;29;20218;-67
2022/05/21 07:48:24;;;;;;;2.38;2.28;;;11.40;99.90;;;;;;6056310;29;20256;-68
2022/05/21 07:51:30;;;;;;;2.30;2.10;;;11.40;99.90;;;;;;6056105;29;20606;-68
2022/05/21 07:54:36;;;;;;;2.22;2.22;;;11.50;99.90;;;;;;6070068;29;20234;-69
2022/05/21 07:57:42;;;;;;;4.70;2.55;;;11.40;99.90;;;;;;6056014;29;20614;-68
2022/05/21 08:00:48;;;;;;;3.05;2.42;;;11.50;99.90;;;;;;6056532;29;20218;-67
2022/05/21 08:03:53;;;;;;;2.83;2.42;;;11.50;99.90;;;;;;6055782;29;20260;-69
2022/05/21 08:06:58;;;;;;;2.40;2.30;;;11.50;99.90;;;;;;6055582;29;20214;-69
2022/05/21 08:10:08;;;;;;;4.18;2.45;;;11.50;99.90;;;;;;6056896;29;20217;-68
2022/05/21 08:13:15;;;;;;;2.35;2.25;;;11.50;99.90;;;;;;6055555;29;20604;-67
2022/05/21 08:16:21;;;;;;;3.05;2.40;;;11.50;99.90;;;;;;6056732;29;20590;-67
2022/05/21 08:19:27;;;;;;;2.40;2.20;;;11.50;99.90;;;;;;6056004;29;20242;-69
2022/05/21 08:29:19;;;;;;;2.38;2.28;;;11.50;99.90;;;;;;6056010;29;20238;-68
2022/05/21 08:32:25;;;;;;;1.88;1.88;;;11.60;99.90;;;;;;6056147;29;20308;-68
2022/05/21 08:35:31;;;;;;;2.10;2.10;;;11.60;99.90;;;;;;6056614;29;20225;-68
2022/05/21 08:38:36;;;;;;;2.20;2.10;;;11.60;99.90;;;;;;6056189;29;20715;-67
2022/05/21 08:41:48;;;;;;;2.35;2.20;;;11.60;99.90;;;;;;6056811;29;20214;-67
2022/05/21 08:45:04;;;;;;;2.35;2.15;;;11.60;99.90;;;;;;6072643;29;20238;-72
2022/05/21 08:48:16;;;;;;;2.22;2.15;;;11.60;99.90;;;;;;6060018;29;20234;-67
2022/05/21 08:51:26;;;;;;;2.47;2.38;;;11.60;99.90;;;;;;6058359;29;20206;-68
2022/05/21 08:54:35;;;;;;;2.28;2.17;;;11.50;99.90;;;;;;6056349;29;20249;-68
2022/05/21 08:57:46;;;;;;;2.22;2.20;;;11.50;99.90;;;;;;6070230;29;20240;-68
2022/05/21 09:00:51;;;;;;;2.30;2.20;;;11.50;99.90;;;;;;6056281;29;20569;-66
2022/05/21 09:03:58;;;;;;;2.25;2.15;;;11.30;99.90;;;;;;6055060;29;20669;-67
2022/05/21 09:07:09;;;;;;;2.47;2.28;;;11.40;99.90;;;;;;6055433;29;20212;-67
2022/05/21 09:10:34;;;;;;;2.80;2.30;;;11.40;99.90;;;;;;6060056;29;20210;-67
2022/05/21 09:13:46;;;;;;;3.85;2.30;;;11.40;99.90;;;;;;6059972;29;20253;-67
2022/05/21 09:17:00;;;;;;;2.38;2.28;;;11.50;99.90;;;;;;6060125;29;20206;-67
2022/05/21 09:20:07;;;;;;;4.00;2.50;;;11.50;99.90;;;;;;6059369;29;20665;-68
2022/05/21 09:23:13;;;;;;;2.60;2.40;;;11.60;99.90;;;;;;6059375;29;20234;-67
2022/05/21 09:26:22;;;;;;;2.70;2.50;;;11.50;99.90;;;;;;6060263;29;20206;-67
2022/05/21 09:29:33;;;;;;;3.25;2.47;;;11.60;99.90;;;;;;6059658;29;20229;-69
2022/05/21 09:32:39;;;;;;;2.65;2.45;;;11.70;99.90;;;;;;6059500;29;20238;-66
2022/05/21 09:35:53;;;;;;;2.38;2.38;;;11.80;99.90;;;;;;6060169;29;20240;-67
2022/05/21 09:38:59;;;;;;;2.85;2.70;;;11.90;99.90;;;;;;6060568;29;20252;-68
2022/05/21 09:42:13;;;;;;;2.40;2.28;;;11.90;99.20;;;;;;6063144;29;20210;-67
2022/05/21 09:45:32;;;;;;;3.08;2.45;;;12.00;99.70;;;;;;6062184;29;20216;-67
2022/05/21 09:48:40;;;;;;;2.63;2.50;;;12.10;99.30;;;;;;6059564;29;20240;-68
2022/05/21 09:51:55;;;;;;;2.42;2.30;;;12.10;98.50;;;;;;6059421;29;20225;-67
2022/05/21 09:55:05;;;;;;;2.17;2.17;;;12.10;98.30;;;;;;6058874;29;20289;-67
2022/05/21 09:58:15;;;;;;;2.65;2.35;;;12.10;98.40;;;;;;6058827;29;20728;-68
2022/05/21 10:01:38;;;;;;;2.47;2.38;;;12.20;98.80;;;;;;6059756;29;20220;-67
2022/05/21 10:04:49;;;;;;;2.60;2.40;;;12.30;98.20;;;;;;6058964;29;20250;-66
2022/05/21 10:11:27;;;;;;;2.20;2.10;;;12.20;98.20;;;;;;6058793;29;20211;-66
2022/05/21 10:14:37;;;;;;;2.40;2.30;;;12.40;97.90;;;;;;6058751;29;20592;-66
2022/05/21 10:17:47;;;;;;;2.30;2.30;;;12.50;98.30;;;;;;6058653;29;20242;-66
2022/05/21 10:20:57;;;;;;;3.05;2.20;;;12.50;97.90;;;;;;6058890;29;20653;-67
2022/05/21 10:24:10;;;;;;;2.47;2.38;;;12.50;97.50;;;;;;6058732;29;20260;-68
2022/05/21 10:27:30;;;;;;;2.53;2.40;;;12.50;97.30;;;;;;6058627;29;20597;-67
2022/05/21 10:30:59;;;;;;;2.08;2.00;;;12.60;97.70;;;;;;6059159;29;20234;-67
2022/05/21 10:34:28;;;;;;;3.50;2.38;;;12.70;96.30;;;;;;6058067;29;20276;-67
2022/05/21 10:37:52;;;;;;;2.85;2.20;;;12.60;96.00;;;;;;6058036;29;20237;-67
2022/05/21 10:41:02;;;;;;;3.50;2.30;;;12.70;96.10;;;;;;6058037;29;20217;-66
2022/05/21 10:44:24;;;;;;;2.50;2.40;;;12.80;96.30;;;;;;6057523;29;20606;-66
2022/05/21 10:47:55;;;;;;;2.35;2.20;;;12.70;95.80;;;;;;6057934;29;20666;-67
2022/05/21 10:51:07;;;;;;;2.38;2.00;;;12.60;95.90;;;;;;6058419;29;20224;-67
2022/05/21 10:54:35;;;;;;;2.45;2.35;;;12.60;95.40;;;;;;6057467;29;20242;-67
2022/05/21 10:58:25;;;;;;;2.20;2.10;;;12.70;95.20;;;;;;6057901;29;20652;-66
2022/05/21 11:01:36;;;;;;;2.08;2.05;;;12.80;94.90;;;;;;6053286;29;20210;-67
2022/05/21 11:05:13;;;;;;;2.30;2.15;;;12.90;94.90;;;;;;6057891;29;20249;-67
2022/05/21 11:08:28;;;;;;;2.35;2.20;;;12.90;94.60;;;;;;6057463;29;20769;-66
2022/05/21 11:11:42;;;;;;;2.10;2.10;;;12.90;94.30;;;;;;6057989;29;20214;-66
2022/05/21 11:14:52;;;;;;;2.90;2.15;;;13.00;93.90;;;;;;6056495;29;20249;-67
2022/05/21 11:18:01;;;;;;;1.95;1.95;;;13.00;93.80;;;;;;6056855;29;20234;-67
2022/05/21 11:21:14;;;;;;;2.30;2.30;;;13.00;92.80;;;;;;6071786;29;20569;-67
2022/05/21 11:24:45;;;;;;;2.20;2.10;;;13.00;92.50;;;;;;6055926;29;20246;-67
2022/05/21 11:27:57;;;;;;;2.78;2.00;;;13.20;92.30;;;;;;6057047;29;20331;-67
2022/05/21 11:31:06;;;;;;;2.90;2.00;;;13.20;91.60;;;;;;6056332;29;20221;-67
2022/05/21 11:37:41;;;;;;;1.80;1.80;;;13.30;91.50;;;;;;6070974;29;20592;-66
2022/05/21 11:48:14;;;;;;;1.70;1.70;;;13.50;90.20;;;;;;6056819;29;20237;-68
2022/05/21 11:51:28;;;;;;;1.60;1.60;;;13.60;89.00;;;;;;6056892;29;20210;-68
2022/05/21 11:55:00;;;;;;;1.63;1.63;;;13.60;89.30;;;;;;6056021;29;20253;-68
2022/05/21 11:58:07;;;;;;;1.80;1.80;;;13.70;87.50;;;;;;6056333;29;20234;-69
2022/05/21 12:01:52;;;;;;;1.75;1.63;;;13.70;85.30;;;;;;6056412;29;20214;-68
2022/05/21 12:05:02;;;;;;;2.10;1.77;;;13.60;85.80;;;;;;6056097;29;20246;-67
2022/05/21 12:08:14;;;;;;;1.50;1.50;;;13.60;84.60;;;;;;6056369;29;20241;-67
2022/05/21 12:11:45;;;;;;;1.70;1.70;;;13.60;83.30;;;;;;6056575;29;20225;-68
2022/05/21 12:14:53;;;;;;;1.60;1.60;;;13.50;82.90;;;;;;6056351;29;20607;-68
2022/05/21 12:18:04;;;;;;;1.70;1.60;;;13.50;81.70;;;;;;6055755;29;20605;-69
2022/05/21 12:22:03;;;;;;;1.85;1.73;;;13.40;80.40;;;;;;6056467;29;20301;-69
2022/05/21 12:25:13;;;;;;;2.08;1.88;;;13.60;79.80;;;;;;6056537;29;20210;-67
2022/05/21 12:28:19;;;;;;;1.77;1.67;;;13.60;78.50;;;;;;6058595;29;20230;-70
2022/05/21 12:31:30;;;;;;;2.00;2.00;;;13.70;81.40;;;;;;6060416;29;20579;-67
2022/05/21 12:35:10;;;;;;;1.80;1.70;;;13.60;78.90;;;;;;6078046;29;20301;-66
2022/05/21 12:38:27;;;;;;;1.70;1.70;;;13.70;76.80;;;;;;6076978;29;20252;-67
2022/05/21 12:41:37;;;;;;;5.40;4.97;;;13.70;77.10;;;;;;6060354;29;20202;-68
2022/05/21 12:44:45;;;;;;;2.38;2.22;;;13.80;78.10;;;;;;6059829;29;20328;-69
2022/05/21 12:47:50;;;;;;;1.70;1.60;;;14.00;77.20;;;;;;6060791;29;20332;-69
2022/05/21 12:50:58;;;;;;;1.80;1.70;;;14.00;75.80;;;;;;6075419;29;20218;-68
2022/05/21 12:54:08;;;;;;;1.80;1.80;;;13.80;73.40;;;;;;6060321;29;20607;-67
2022/05/21 12:57:15;;;;;;;1.65;1.65;;;14.00;74.30;;;;;;6059796;29;20256;-69
2022/05/21 13:00:23;;;;;;;2.53;2.38;;;14.30;74.30;;;;;;6060585;29;20206;-68
2022/05/21 13:03:34;;;;;;;1.98;1.70;;;14.40;73.00;;;;;;6060289;29;20240;-70
2022/05/21 13:06:39;;;;;;;2.95;1.80;;;14.40;72.40;;;;;;6060278;29;20237;-68
2022/05/21 13:09:57;;;;;;;2.65;2.45;;;14.40;70.30;;;;;;6060304;29;20725;-69
2022/05/21 13:13:06;;;;;;;1.90;1.90;;;14.50;70.70;;;;;;6074461;29;20265;-67
2022/05/21 13:16:17;;;;;;;4.43;4.10;;;14.50;70.70;;;;;;6060461;29;20249;-68
2022/05/21 13:19:55;;;;;;;2.10;2.10;;;14.70;69.30;;;;;;6060122;29;20233;-68
2022/05/21 13:23:18;;;;;;;2.15;2.05;;;14.70;67.40;;;;;;6059752;29;20230;-68
2022/05/21 13:26:27;;;;;;;1.92;1.92;;;14.70;66.90;;;;;;6059173;29;20214;-68
2022/05/21 13:29:33;;;;;;;2.20;2.20;;;14.80;66.90;;;;;;6059652;29;20245;-68
2022/05/21 13:32:38;;;;;;;2.25;2.15;;;14.80;64.20;;;;;;6059372;29;20234;-69
2022/05/21 13:35:44;;;;;;;2.10;2.10;;;15.00;63.70;;;;;;6059778;29;20214;-68
2022/05/21 13:38:56;;;;;;;3.05;1.83;;;15.40;63.40;;;;;;6059604;29;20238;-69
2022/05/21 13:42:11;;;;;;;2.00;2.00;;;15.60;60.90;;;;;;6059432;29;20215;-67
2022/05/21 13:45:22;;;;;;;1.92;1.83;;;15.40;59.60;;;;;;6059997;29;20231;-68
2022/05/21 13:48:33;;;;;;;1.70;1.70;;;15.10;59.20;;;;;;6059439;29;20238;-68
2022/05/21 13:51:38;;;;;;;2.63;2.10;;;15.60;60.80;;;;;;6059719;29;20663;-68
2022/05/21 13:54:44;;;;;;;1.65;1.63;;;15.50;59.20;;;;;;6058152;29;20264;-70
2022/05/21 13:57:51;;;;;;;2.15;1.88;;;15.30;59.00;;;;;;6059093;29;20308;-68
2022/05/21 14:00:57;;;;;;;1.73;1.73;;;15.40;59.30;;;;;;6059755;29;20205;-67
2022/05/21 14:04:08;;;;;;;1.55;1.52;;;15.40;58.60;;;;;;6061161;29;20689;-67
2022/05/21 14:07:22;;;;;;;2.10;1.67;;;15.30;58.90;;;;;;6076083;29;20214;-68
2022/05/21 14:10:39;;;;;;;2.03;1.80;;;15.30;59.10;;;;;;6061947;29;20220;-68
2022/05/21 14:13:55;;;;;;;1.85;1.70;;;15.30;58.90;;;;;;6061523;29;20726;-68
2022/05/21 14:17:22;;;;;;;3.08;2.70;;;15.20;56.90;;;;;;6060521;29;20237;-70
2022/05/21 14:20:30;;;;;;;2.03;2.03;;;15.30;58.20;;;;;;6064108;29;20210;-68
2022/05/21 14:23:38;;;;;;;1.90;1.90;;;15.20;57.40;;;;;;6062498;29;20601;-68
2022/05/21 14:27:00;;;;;;;1.65;1.65;;;15.20;58.00;;;;;;6060082;29;20210;-70
2022/05/21 14:30:10;;;;;;;2.55;2.00;;;15.10;57.80;;;;;;6059206;29;20213;-69
2022/05/21 14:33:24;;;;;;;2.40;2.20;;;15.10;57.90;;;;;;6072602;29;20238;-68
2022/05/21 14:36:37;;;;;;;1.95;1.95;;;15.10;58.20;;;;;;6058875;29;20226;-68
2022/05/21 14:39:43;;;;;;;2.97;1.80;;;15.10;57.90;;;;;;6058107;29;20242;-69
2022/05/21 14:42:50;;;;;;;1.75;1.75;;;15.20;57.80;;;;;;6058301;29;20704;-68
2022/05/21 14:45:57;;;;;;;1.80;1.80;;;15.10;57.80;;;;;;6058590;29;20210;-67
2022/05/21 14:49:01;;;;;;;2.20;2.10;;;15.10;57.50;;;;;;6072646;29;20244;-69
2022/05/21 14:55:33;;;;;;;3.50;3.30;;;15.10;56.80;;;;;;6058649;29;20206;-67
2022/05/21 14:58:39;;;;;;;2.35;2.35;;;15.00;57.30;;;;;;6072078;29;20257;-68
2022/05/21 15:01:45;;;;;;;2.40;2.30;;;15.00;57.70;;;;;;6058161;29;20232;-69
2022/05/21 15:04:51;;;;;;;3.42;3.25;;;15.00;57.20;;;;;;6057354;29;20245;-67
2022/05/21 15:07:58;;;;;;;3.10;1.80;;;15.10;57.00;;;;;;6057652;29;20284;-67
2022/05/21 15:11:04;;;;;;;1.80;1.80;;;15.00;57.10;;;;;;6058297;29;20229;-68
2022/05/21 15:14:09;;;;;;;1.63;1.63;;;15.00;57.30;;;;;;6058463;29;20234;-68
2022/05/21 15:17:16;;;;;;;2.10;2.00;;;15.10;58.40;;;;;;6058456;29;20242;-71
2022/05/21 15:20:21;;;;;;;1.83;1.83;;;15.00;57.80;;;;;;6057743;29;20241;-69
2022/05/21 15:23:27;;;;;;;2.50;1.58;;;15.00;57.90;;;;;;6057297;29;20249;-68
2022/05/21 15:26:34;;;;;;;1.90;1.90;;;15.00;58.20;;;;;;6058086;29;20677;-68
2022/05/21 15:29:44;;;;;;;2.55;2.40;;;15.00;56.90;;;;;;6057283;29;20268;-69
2022/05/21 15:32:51;;;;;;;2.85;2.75;;;14.90;57.10;;;;;;6055797;29;20345;-68
2022/05/21 15:35:56;;;;;;;1.90;1.80;;;14.90;57.00;;;;;;6057354;29;20657;-67
2022/05/21 15:39:02;;;;;;;1.70;1.70;;;14.90;56.60;;;;;;6056744;29;20578;-69
2022/05/21 15:42:07;;;;;;;1.90;1.90;;;14.90;56.90;;;;;;6056885;29;20214;-71
2022/05/21 15:45:13;;;;;;;1.67;1.60;;;14.90;56.80;;;;;;6056514;29;20210;-66
2022/05/21 15:48:20;;;;;;;1.98;1.95;;;14.80;57.40;;;;;;6056486;29;20257;-68
2022/05/21 15:51:26;;;;;;;1.85;1.70;;;14.70;57.60;;;;;;6056892;29;20278;-68
2022/05/21 15:54:33;;;;;;;1.60;1.60;;;14.80;58.30;;;;;;6056563;29;20234;-66
2022/05/21 15:57:39;;;;;;;1.67;1.67;;;14.80;57.70;;;;;;6056513;29;20241;-67
2022/05/21 16:00:46;;;;;;;2.38;2.38;;;14.80;58.00;;;;;;6056996;29;20236;-69
2022/05/21 16:03:54;;;;;;;2.53;2.40;;;14.90;58.40;;;;;;6060083;29;20237;-66
2022/05/21 16:06:59;;;;;;;2.05;1.95;;;14.80;59.20;;;;;;6061411;29;20222;-72
2022/05/21 16:10:08;;;;;;;2.78;2.67;;;14.80;59.20;;;;;;6056677;29;20213;-70
2022/05/21 16:13:15;;;;;;;2.63;2.53;;;14.80;58.50;;;;;;6056550;29;20245;-71
2022/05/21 16:16:21;;;;;;;2.55;2.35;;;14.90;58.50;;;;;;6056931;29;20210;-68
2022/05/21 16:19:27;;;;;;;3.20;3.00;;;14.90;59.00;;;;;;6055488;29;20241;-67
2022/05/21 16:22:33;;;;;;;2.15;2.00;;;14.90;59.10;;;;;;6055844;29;20249;-67
2022/05/21 16:25:39;;;;;;;2.28;1.90;;;14.80;58.20;;;;;;6056415;29;20206;-68
2022/05/21 16:28:44;;;;;;;2.22;1.95;;;14.80;58.20;;;;;;6056309;29;20252;-69
2022/05/21 16:31:49;;;;;;;2.38;2.28;;;14.80;57.90;;;;;;6056729;29;20214;-68
2022/05/21 16:34:57;;;;;;;2.97;2.25;;;14.80;58.60;;;;;;6055551;29;20202;-70
2022/05/21 16:38:04;;;;;;;2.30;2.20;;;14.90;59.10;;;;;;6056009;29;20229;-68
2022/05/21 16:41:10;;;;;;;8.07;7.40;;;15.00;58.70;;;;;;6056971;29;20559;-69
2022/05/21 16:44:16;;;;;;;3.10;3.00;;;14.90;59.00;;;;;;6058986;29;20693;-68
2022/05/21 16:47:21;;;;;;;3.72;3.40;;;14.90;59.90;;;;;;6060082;29;20556;-67
2022/05/21 16:50:28;;;;;;;3.60;3.30;;;15.00;60.30;;;;;;6061837;29;20218;-68
2022/05/21 16:53:33;;;;;;;1.80;1.80;;;14.90;59.80;;;;;;6059749;29;20229;-68
2022/05/21 16:56:38;;;;;;;2.10;1.98;;;14.80;58.50;;;;;;6056549;29;20211;-68
2022/05/21 16:59:44;;;;;;;1.90;1.90;;;14.80;59.50;;;;;;6056201;29;20240;-69
2022/05/21 17:02:49;;;;;;;2.10;2.10;;;14.70;59.30;;;;;;6055398;29;20237;-69
2022/05/21 17:05:56;;;;;;;4.72;4.35;;;14.60;59.50;;;;;;6056535;29;20238;-67
2022/05/21 17:09:02;;;;;;;2.72;2.60;;;14.70;60.30;;;;;;6055172;29;20242;-68
2022/05/21 17:12:09;;;;;;;2.30;2.30;;;14.70;60.70;;;;;;6055695;29;20564;-68
2022/05/21 17:15:15;;;;;;;3.97;2.45;;;14.70;60.30;;;;;;6056085;29;20210;-69
2022/05/21 17:18:21;;;;;;;2.97;2.55;;;14.60;60.20;;;;;;6055778;29;20245;-67
2022/05/21 17:21:28;;;;;;;2.95;2.85;;;14.50;60.70;;;;;;6056489;29;20233;-69